sensor_id;sensor_type;location;lat;lon;timestamp;P1;durP1;ratioP1;P2;durP2;ratioP2
11313;SDS011;5712;48.858;9.206;2023-12-22T00:01:07;1.27;;;1.00;;
11313;SDS011;5712;48.858;9.206;2023-12-22T00:03:34;3.87;;;1.13;;
11313;SDS011;5712;48.858;9.206;2023-12-22T00:06:00;1.70;;;1.20;;
11313;SDS011;5712;48.858;9.206;2023-12-22T00:08:27;2.20;;;1.13;;
11313;SDS011;5712;48.858;9.206;2023-12-22T00:10:55;1.93;;;0.80;;
11313;SDS011;5712;48.858;9.206;2023-12-22T00:13:21;1.23;;;0.80;;
11313;SDS011;5712;48.858;9.206;2023-12-22T00:15:48;1.60;;;0.80;;
11313;SDS011;5712;48.858;9.206;2023-12-22T00:18:14;1.13;;;0.70;;
11313;SDS011;5712;48.858;9.206;2023-12-22T00:20:41;4.87;;;1.03;;
11313;SDS011;5712;48.858;9.206;2023-12-22T00:23:07;3.63;;;1.10;;
11313;SDS011;5712;48.858;9.206;2023-12-22T00:25:34;1.90;;;1.73;;
11313;SDS011;5712;48.858;9.206;2023-12-22T00:28:02;4.80;;;1.10;;
11313;SDS011;5712;48.858;9.206;2023-12-22T00:30:29;5.53;;;1.27;;
11313;SDS011;5712;48.858;9.206;2023-12-22T00:32:55;5.03;;;1.40;;
11313;SDS011;5712;48.858;9.206;2023-12-22T00:35:22;5.23;;;1.33;;
11313;SDS011;5712;48.858;9.206;2023-12-22T00:37:48;1.40;;;1.20;;
11313;SDS011;5712;48.858;9.206;2023-12-22T00:40:15;2.53;;;1.17;;
11313;SDS011;5712;48.858;9.206;2023-12-22T00:42:41;3.60;;;1.20;;
11313;SDS011;5712;48.858;9.206;2023-12-22T00:45:10;3.13;;;1.17;;
11313;SDS011;5712;48.858;9.206;2023-12-22T00:47:36;2.97;;;1.30;;
11313;SDS011;5712;48.858;9.206;2023-12-22T00:50:03;4.37;;;1.63;;
11313;SDS011;5712;48.858;9.206;2023-12-22T00:52:30;1.30;;;0.87;;
11313;SDS011;5712;48.858;9.206;2023-12-22T00:54:57;2.57;;;0.80;;
11313;SDS011;5712;48.858;9.206;2023-12-22T00:57:24;0.50;;;0.50;;
11313;SDS011;5712;48.858;9.206;2023-12-22T00:59:50;1.83;;;0.90;;
11313;SDS011;5712;48.858;9.206;2023-12-22T01:02:19;1.90;;;1.00;;
11313;SDS011;5712;48.858;9.206;2023-12-22T01:04:46;3.80;;;1.00;;
11313;SDS011;5712;48.858;9.206;2023-12-22T01:07:12;0.93;;;0.70;;
11313;SDS011;5712;48.858;9.206;2023-12-22T01:09:39;1.20;;;1.10;;
11313;SDS011;5712;48.858;9.206;2023-12-22T01:12:06;1.40;;;1.07;;
11313;SDS011;5712;48.858;9.206;2023-12-22T01:14:33;2.27;;;1.03;;
11313;SDS011;5712;48.858;9.206;2023-12-22T01:16:59;3.20;;;0.83;;
11313;SDS011;5712;48.858;9.206;2023-12-22T01:19:27;2.37;;;0.90;;
11313;SDS011;5712;48.858;9.206;2023-12-22T01:21:54;1.70;;;0.90;;
11313;SDS011;5712;48.858;9.206;2023-12-22T01:24:20;1.83;;;1.20;;
11313;SDS011;5712;48.858;9.206;2023-12-22T01:26:47;2.17;;;1.10;;
11313;SDS011;5712;48.858;9.206;2023-12-22T01:29:13;5.40;;;1.37;;
11313;SDS011;5712;48.858;9.206;2023-12-22T01:31:40;7.70;;;1.40;;
11313;SDS011;5712;48.858;9.206;2023-12-22T01:34:06;4.73;;;1.70;;
11313;SDS011;5712;48.858;9.206;2023-12-22T01:36:35;3.17;;;1.33;;
11313;SDS011;5712;48.858;9.206;2023-12-22T01:39:01;4.20;;;1.40;;
11313;SDS011;5712;48.858;9.206;2023-12-22T01:41:28;7.60;;;1.20;;
11313;SDS011;5712;48.858;9.206;2023-12-22T01:43:54;6.03;;;1.33;;
11313;SDS011;5712;48.858;9.206;2023-12-22T01:46:21;4.20;;;1.27;;
11313;SDS011;5712;48.858;9.206;2023-12-22T01:48:48;6.20;;;1.30;;
11313;SDS011;5712;48.858;9.206;2023-12-22T01:51:14;7.73;;;2.10;;
11313;SDS011;5712;48.858;9.206;2023-12-22T01:53:42;3.03;;;1.00;;
11313;SDS011;5712;48.858;9.206;2023-12-22T01:56:22;2.10;;;0.87;;
11313;SDS011;5712;48.858;9.206;2023-12-22T01:58:49;3.00;;;0.80;;
11313;SDS011;5712;48.858;9.206;2023-12-22T02:01:19;2.00;;;0.90;;
11313;SDS011;5712;48.858;9.206;2023-12-22T02:03:46;4.27;;;0.90;;
11313;SDS011;5712;48.858;9.206;2023-12-22T02:06:17;3.80;;;0.90;;
11313;SDS011;5712;48.858;9.206;2023-12-22T02:08:45;1.93;;;0.77;;
11313;SDS011;5712;48.858;9.206;2023-12-22T02:11:12;2.43;;;0.80;;
11313;SDS011;5712;48.858;9.206;2023-12-22T02:13:39;2.60;;;0.83;;
11313;SDS011;5712;48.858;9.206;2023-12-22T02:16:08;3.70;;;0.97;;
11313;SDS011;5712;48.858;9.206;2023-12-22T02:18:40;0.83;;;0.50;;
11313;SDS011;5712;48.858;9.206;2023-12-22T02:21:12;2.37;;;0.80;;
11313;SDS011;5712;48.858;9.206;2023-12-22T02:23:40;0.63;;;0.60;;
11313;SDS011;5712;48.858;9.206;2023-12-22T02:26:08;0.70;;;0.40;;
11313;SDS011;5712;48.858;9.206;2023-12-22T02:28:38;0.50;;;0.50;;
11313;SDS011;5712;48.858;9.206;2023-12-22T02:31:09;0.80;;;0.60;;
11313;SDS011;5712;48.858;9.206;2023-12-22T02:33:47;2.23;;;0.80;;
11313;SDS011;5712;48.858;9.206;2023-12-22T02:36:20;1.43;;;0.73;;
11313;SDS011;5712;48.858;9.206;2023-12-22T02:38:49;1.13;;;0.83;;
11313;SDS011;5712;48.858;9.206;2023-12-22T02:41:19;3.37;;;0.60;;
11313;SDS011;5712;48.858;9.206;2023-12-22T02:43:45;1.27;;;0.70;;
11313;SDS011;5712;48.858;9.206;2023-12-22T02:46:13;2.13;;;1.20;;
11313;SDS011;5712;48.858;9.206;2023-12-22T02:48:42;1.90;;;0.73;;
11313;SDS011;5712;48.858;9.206;2023-12-22T02:51:09;2.43;;;0.87;;
11313;SDS011;5712;48.858;9.206;2023-12-22T02:53:35;1.77;;;0.87;;
11313;SDS011;5712;48.858;9.206;2023-12-22T02:56:04;1.73;;;0.87;;
11313;SDS011;5712;48.858;9.206;2023-12-22T02:58:31;3.37;;;0.90;;
11313;SDS011;5712;48.858;9.206;2023-12-22T03:00:57;3.13;;;1.30;;
11313;SDS011;5712;48.858;9.206;2023-12-22T03:03:24;1.17;;;0.80;;
11313;SDS011;5712;48.858;9.206;2023-12-22T03:05:50;1.53;;;0.80;;
11313;SDS011;5712;48.858;9.206;2023-12-22T03:08:16;2.77;;;0.77;;
11313;SDS011;5712;48.858;9.206;2023-12-22T03:10:43;2.33;;;0.80;;
11313;SDS011;5712;48.858;9.206;2023-12-22T03:13:11;3.13;;;1.30;;
11313;SDS011;5712;48.858;9.206;2023-12-22T03:15:37;1.47;;;1.00;;
11313;SDS011;5712;48.858;9.206;2023-12-22T03:18:04;3.43;;;1.10;;
11313;SDS011;5712;48.858;9.206;2023-12-22T03:20:30;2.03;;;0.90;;
11313;SDS011;5712;48.858;9.206;2023-12-22T03:22:57;2.27;;;1.13;;
11313;SDS011;5712;48.858;9.206;2023-12-22T03:25:24;2.87;;;0.83;;
11313;SDS011;5712;48.858;9.206;2023-12-22T03:27:50;0.80;;;0.80;;
11313;SDS011;5712;48.858;9.206;2023-12-22T03:30:18;2.87;;;0.93;;
11313;SDS011;5712;48.858;9.206;2023-12-22T03:32:45;4.43;;;1.10;;
11313;SDS011;5712;48.858;9.206;2023-12-22T03:35:11;3.37;;;0.80;;
11313;SDS011;5712;48.858;9.206;2023-12-22T03:37:38;2.73;;;1.10;;
11313;SDS011;5712;48.858;9.206;2023-12-22T03:40:04;1.33;;;0.70;;
11313;SDS011;5712;48.858;9.206;2023-12-22T03:42:32;4.63;;;0.90;;
11313;SDS011;5712;48.858;9.206;2023-12-22T03:44:58;3.97;;;1.50;;
11313;SDS011;5712;48.858;9.206;2023-12-22T03:47:26;4.07;;;1.53;;
11313;SDS011;5712;48.858;9.206;2023-12-22T03:49:53;5.20;;;1.17;;
11313;SDS011;5712;48.858;9.206;2023-12-22T03:52:19;7.73;;;1.10;;
11313;SDS011;5712;48.858;9.206;2023-12-22T03:54:45;4.07;;;1.00;;
11313;SDS011;5712;48.858;9.206;2023-12-22T03:57:12;2.67;;;0.90;;
11313;SDS011;5712;48.858;9.206;2023-12-22T03:59:38;2.97;;;1.20;;
11313;SDS011;5712;48.858;9.206;2023-12-22T04:02:08;2.77;;;0.90;;
11313;SDS011;5712;48.858;9.206;2023-12-22T04:04:38;2.40;;;0.93;;
11313;SDS011;5712;48.858;9.206;2023-12-22T04:07:04;3.30;;;1.10;;
11313;SDS011;5712;48.858;9.206;2023-12-22T04:09:31;2.63;;;0.80;;
11313;SDS011;5712;48.858;9.206;2023-12-22T04:11:57;2.40;;;0.90;;
11313;SDS011;5712;48.858;9.206;2023-12-22T04:14:24;2.67;;;1.30;;
11313;SDS011;5712;48.858;9.206;2023-12-22T04:16:50;5.17;;;1.27;;
11313;SDS011;5712;48.858;9.206;2023-12-22T04:19:18;5.03;;;1.20;;
11313;SDS011;5712;48.858;9.206;2023-12-22T04:21:45;5.90;;;1.20;;
11313;SDS011;5712;48.858;9.206;2023-12-22T04:24:15;2.73;;;1.17;;
11313;SDS011;5712;48.858;9.206;2023-12-22T04:26:41;5.17;;;1.20;;
11313;SDS011;5712;48.858;9.206;2023-12-22T04:29:08;5.77;;;1.30;;
11313;SDS011;5712;48.858;9.206;2023-12-22T04:31:34;3.87;;;1.00;;
11313;SDS011;5712;48.858;9.206;2023-12-22T04:34:01;4.77;;;1.63;;
11313;SDS011;5712;48.858;9.206;2023-12-22T04:36:27;5.00;;;1.40;;
11313;SDS011;5712;48.858;9.206;2023-12-22T04:38:55;2.97;;;1.40;;
11313;SDS011;5712;48.858;9.206;2023-12-22T04:41:22;2.97;;;1.07;;
11313;SDS011;5712;48.858;9.206;2023-12-22T04:43:48;4.03;;;1.40;;
11313;SDS011;5712;48.858;9.206;2023-12-22T04:46:15;3.07;;;1.33;;
11313;SDS011;5712;48.858;9.206;2023-12-22T04:48:41;3.73;;;1.00;;
11313;SDS011;5712;48.858;9.206;2023-12-22T04:51:08;4.23;;;1.10;;
11313;SDS011;5712;48.858;9.206;2023-12-22T04:53:34;3.97;;;0.97;;
11313;SDS011;5712;48.858;9.206;2023-12-22T04:56:02;6.77;;;1.33;;
11313;SDS011;5712;48.858;9.206;2023-12-22T04:58:29;3.53;;;1.00;;
11313;SDS011;5712;48.858;9.206;2023-12-22T05:00:56;9.37;;;1.10;;
11313;SDS011;5712;48.858;9.206;2023-12-22T05:03:24;2.80;;;1.03;;
11313;SDS011;5712;48.858;9.206;2023-12-22T05:05:50;3.77;;;1.00;;
11313;SDS011;5712;48.858;9.206;2023-12-22T05:08:17;4.93;;;0.93;;
11313;SDS011;5712;48.858;9.206;2023-12-22T05:10:45;2.80;;;1.00;;
11313;SDS011;5712;48.858;9.206;2023-12-22T05:13:12;3.60;;;0.93;;
11313;SDS011;5712;48.858;9.206;2023-12-22T05:15:39;4.83;;;0.80;;
11313;SDS011;5712;48.858;9.206;2023-12-22T05:18:05;5.77;;;1.10;;
11313;SDS011;5712;48.858;9.206;2023-12-22T05:20:32;6.17;;;1.63;;
11313;SDS011;5712;48.858;9.206;2023-12-22T05:22:58;8.43;;;1.40;;
11313;SDS011;5712;48.858;9.206;2023-12-22T05:25:25;4.17;;;1.00;;
11313;SDS011;5712;48.858;9.206;2023-12-22T05:27:51;5.47;;;1.47;;
11313;SDS011;5712;48.858;9.206;2023-12-22T05:30:19;5.37;;;1.37;;
11313;SDS011;5712;48.858;9.206;2023-12-22T05:32:46;4.73;;;1.33;;
11313;SDS011;5712;48.858;9.206;2023-12-22T05:35:12;4.20;;;1.40;;
11313;SDS011;5712;48.858;9.206;2023-12-22T05:37:39;4.07;;;1.20;;
11313;SDS011;5712;48.858;9.206;2023-12-22T05:40:05;3.87;;;1.37;;
11313;SDS011;5712;48.858;9.206;2023-12-22T05:42:33;6.10;;;2.20;;
11313;SDS011;5712;48.858;9.206;2023-12-22T05:45:00;4.73;;;1.43;;
11313;SDS011;5712;48.858;9.206;2023-12-22T05:47:27;2.77;;;1.20;;
11313;SDS011;5712;48.858;9.206;2023-12-22T05:49:54;2.17;;;1.17;;
11313;SDS011;5712;48.858;9.206;2023-12-22T05:52:20;7.80;;;1.63;;
11313;SDS011;5712;48.858;9.206;2023-12-22T05:54:47;7.60;;;1.37;;
11313;SDS011;5712;48.858;9.206;2023-12-22T05:57:13;6.77;;;1.60;;
11313;SDS011;5712;48.858;9.206;2023-12-22T05:59:40;4.63;;;1.37;;
11313;SDS011;5712;48.858;9.206;2023-12-22T06:02:06;4.50;;;1.43;;
11313;SDS011;5712;48.858;9.206;2023-12-22T06:04:34;7.37;;;1.73;;
11313;SDS011;5712;48.858;9.206;2023-12-22T06:07:01;9.60;;;1.80;;
11313;SDS011;5712;48.858;9.206;2023-12-22T06:09:27;3.27;;;1.23;;
11313;SDS011;5712;48.858;9.206;2023-12-22T06:11:54;5.10;;;1.50;;
11313;SDS011;5712;48.858;9.206;2023-12-22T06:14:20;6.17;;;1.40;;
11313;SDS011;5712;48.858;9.206;2023-12-22T06:16:47;4.63;;;1.60;;
11313;SDS011;5712;48.858;9.206;2023-12-22T06:19:13;4.70;;;1.57;;
11313;SDS011;5712;48.858;9.206;2023-12-22T06:21:43;6.37;;;1.40;;
11313;SDS011;5712;48.858;9.206;2023-12-22T06:24:09;2.83;;;1.23;;
11313;SDS011;5712;48.858;9.206;2023-12-22T06:26:35;8.37;;;1.67;;
11313;SDS011;5712;48.858;9.206;2023-12-22T06:29:02;4.97;;;1.83;;
11313;SDS011;5712;48.858;9.206;2023-12-22T06:31:29;3.47;;;1.20;;
11313;SDS011;5712;48.858;9.206;2023-12-22T06:33:56;5.13;;;1.50;;
11313;SDS011;5712;48.858;9.206;2023-12-22T06:36:27;3.73;;;1.37;;
11313;SDS011;5712;48.858;9.206;2023-12-22T06:38:56;7.37;;;1.60;;
11313;SDS011;5712;48.858;9.206;2023-12-22T06:41:23;3.77;;;1.57;;
11313;SDS011;5712;48.858;9.206;2023-12-22T06:43:50;4.90;;;1.40;;
11313;SDS011;5712;48.858;9.206;2023-12-22T06:46:17;5.70;;;1.27;;
11313;SDS011;5712;48.858;9.206;2023-12-22T06:48:44;3.67;;;1.23;;
11313;SDS011;5712;48.858;9.206;2023-12-22T06:51:17;5.93;;;1.50;;
11313;SDS011;5712;48.858;9.206;2023-12-22T06:53:45;3.73;;;1.10;;
11313;SDS011;5712;48.858;9.206;2023-12-22T06:56:17;7.27;;;1.53;;
11313;SDS011;5712;48.858;9.206;2023-12-22T06:58:44;3.63;;;1.20;;
11313;SDS011;5712;48.858;9.206;2023-12-22T07:01:12;5.63;;;1.27;;
11313;SDS011;5712;48.858;9.206;2023-12-22T07:03:39;5.57;;;1.63;;
11313;SDS011;5712;48.858;9.206;2023-12-22T07:06:05;4.83;;;1.33;;
11313;SDS011;5712;48.858;9.206;2023-12-22T07:08:32;5.57;;;1.50;;
11313;SDS011;5712;48.858;9.206;2023-12-22T07:10:59;6.13;;;1.40;;
11313;SDS011;5712;48.858;9.206;2023-12-22T07:13:28;3.97;;;1.30;;
11313;SDS011;5712;48.858;9.206;2023-12-22T07:15:54;7.67;;;1.77;;
11313;SDS011;5712;48.858;9.206;2023-12-22T07:18:21;8.23;;;1.53;;
11313;SDS011;5712;48.858;9.206;2023-12-22T07:20:47;4.97;;;1.57;;
11313;SDS011;5712;48.858;9.206;2023-12-22T07:23:13;6.20;;;1.90;;
11313;SDS011;5712;48.858;9.206;2023-12-22T07:25:40;4.80;;;1.90;;
11313;SDS011;5712;48.858;9.206;2023-12-22T07:28:07;4.50;;;1.70;;
11313;SDS011;5712;48.858;9.206;2023-12-22T07:30:34;8.30;;;2.03;;
11313;SDS011;5712;48.858;9.206;2023-12-22T07:33:01;5.50;;;1.67;;
11313;SDS011;5712;48.858;9.206;2023-12-22T07:35:28;7.73;;;1.80;;
11313;SDS011;5712;48.858;9.206;2023-12-22T07:37:54;6.20;;;1.20;;
11313;SDS011;5712;48.858;9.206;2023-12-22T07:40:20;5.97;;;1.73;;
11313;SDS011;5712;48.858;9.206;2023-12-22T07:42:47;5.73;;;1.30;;
11313;SDS011;5712;48.858;9.206;2023-12-22T07:45:15;7.73;;;1.20;;
11313;SDS011;5712;48.858;9.206;2023-12-22T07:47:43;5.13;;;1.20;;
11313;SDS011;5712;48.858;9.206;2023-12-22T07:50:11;5.23;;;1.80;;
11313;SDS011;5712;48.858;9.206;2023-12-22T07:52:37;5.70;;;1.20;;
11313;SDS011;5712;48.858;9.206;2023-12-22T07:55:05;4.33;;;1.10;;
11313;SDS011;5712;48.858;9.206;2023-12-22T07:57:33;2.07;;;1.10;;
11313;SDS011;5712;48.858;9.206;2023-12-22T07:59:59;4.53;;;1.30;;
11313;SDS011;5712;48.858;9.206;2023-12-22T08:02:26;7.93;;;1.60;;
11313;SDS011;5712;48.858;9.206;2023-12-22T08:04:54;3.83;;;1.17;;
11313;SDS011;5712;48.858;9.206;2023-12-22T08:07:20;4.33;;;1.20;;
11313;SDS011;5712;48.858;9.206;2023-12-22T08:09:47;2.23;;;1.03;;
11313;SDS011;5712;48.858;9.206;2023-12-22T08:12:13;4.57;;;1.50;;
11313;SDS011;5712;48.858;9.206;2023-12-22T08:14:40;3.83;;;1.03;;
11313;SDS011;5712;48.858;9.206;2023-12-22T08:17:06;4.83;;;1.53;;
11313;SDS011;5712;48.858;9.206;2023-12-22T08:19:33;4.33;;;1.33;;
11313;SDS011;5712;48.858;9.206;2023-12-22T08:22:03;4.93;;;1.57;;
11313;SDS011;5712;48.858;9.206;2023-12-22T08:24:30;5.20;;;1.33;;
11313;SDS011;5712;48.858;9.206;2023-12-22T08:26:56;7.40;;;1.50;;
11313;SDS011;5712;48.858;9.206;2023-12-22T08:29:23;6.87;;;1.93;;
11313;SDS011;5712;48.858;9.206;2023-12-22T08:31:50;8.07;;;1.53;;
11313;SDS011;5712;48.858;9.206;2023-12-22T08:34:16;8.57;;;1.70;;
11313;SDS011;5712;48.858;9.206;2023-12-22T08:36:42;5.50;;;1.53;;
11313;SDS011;5712;48.858;9.206;2023-12-22T08:39:10;9.40;;;1.90;;
11313;SDS011;5712;48.858;9.206;2023-12-22T08:41:37;7.93;;;1.87;;
11313;SDS011;5712;48.858;9.206;2023-12-22T08:44:03;6.23;;;2.50;;
11313;SDS011;5712;48.858;9.206;2023-12-22T08:46:30;8.17;;;2.80;;
11313;SDS011;5712;48.858;9.206;2023-12-22T08:48:57;9.23;;;2.90;;
11313;SDS011;5712;48.858;9.206;2023-12-22T08:51:24;14.93;;;2.63;;
11313;SDS011;5712;48.858;9.206;2023-12-22T08:53:51;8.40;;;2.80;;
11313;SDS011;5712;48.858;9.206;2023-12-22T08:56:19;13.73;;;2.90;;
11313;SDS011;5712;48.858;9.206;2023-12-22T08:58:46;10.90;;;2.63;;
11313;SDS011;5712;48.858;9.206;2023-12-22T09:01:14;11.57;;;2.20;;
11313;SDS011;5712;48.858;9.206;2023-12-22T09:03:41;8.70;;;2.77;;
11313;SDS011;5712;48.858;9.206;2023-12-22T09:06:10;7.77;;;2.23;;
11313;SDS011;5712;48.858;9.206;2023-12-22T09:08:38;9.13;;;2.23;;
11313;SDS011;5712;48.858;9.206;2023-12-22T09:11:04;10.70;;;2.20;;
11313;SDS011;5712;48.858;9.206;2023-12-22T09:13:32;10.17;;;2.03;;
11313;SDS011;5712;48.858;9.206;2023-12-22T09:16:00;11.37;;;2.97;;
11313;SDS011;5712;48.858;9.206;2023-12-22T09:18:27;6.97;;;2.07;;
11313;SDS011;5712;48.858;9.206;2023-12-22T09:20:54;8.83;;;2.10;;
11313;SDS011;5712;48.858;9.206;2023-12-22T09:23:20;7.33;;;2.10;;
11313;SDS011;5712;48.858;9.206;2023-12-22T09:25:47;7.27;;;2.23;;
11313;SDS011;5712;48.858;9.206;2023-12-22T09:28:14;11.15;;;2.53;;
11313;SDS011;5712;48.858;9.206;2023-12-22T09:30:44;7.37;;;2.13;;
11313;SDS011;5712;48.858;9.206;2023-12-22T09:33:10;7.10;;;2.03;;
11313;SDS011;5712;48.858;9.206;2023-12-22T09:35:38;10.00;;;1.80;;
11313;SDS011;5712;48.858;9.206;2023-12-22T09:38:06;10.13;;;2.17;;
11313;SDS011;5712;48.858;9.206;2023-12-22T09:40:34;11.10;;;1.90;;
11313;SDS011;5712;48.858;9.206;2023-12-22T09:43:03;8.27;;;2.37;;
11313;SDS011;5712;48.858;9.206;2023-12-22T09:45:30;9.37;;;2.53;;
11313;SDS011;5712;48.858;9.206;2023-12-22T09:48:00;7.87;;;2.13;;
11313;SDS011;5712;48.858;9.206;2023-12-22T09:50:28;9.47;;;2.27;;
11313;SDS011;5712;48.858;9.206;2023-12-22T09:52:56;10.43;;;2.40;;
11313;SDS011;5712;48.858;9.206;2023-12-22T09:55:23;11.10;;;2.20;;
11313;SDS011;5712;48.858;9.206;2023-12-22T09:57:52;10.77;;;2.50;;
11313;SDS011;5712;48.858;9.206;2023-12-22T10:00:20;13.57;;;2.40;;
11313;SDS011;5712;48.858;9.206;2023-12-22T10:02:48;8.70;;;2.37;;
11313;SDS011;5712;48.858;9.206;2023-12-22T10:05:16;9.53;;;2.13;;
11313;SDS011;5712;48.858;9.206;2023-12-22T10:07:44;9.53;;;2.47;;
11313;SDS011;5712;48.858;9.206;2023-12-22T10:10:11;7.53;;;1.77;;
11313;SDS011;5712;48.858;9.206;2023-12-22T10:12:39;5.70;;;2.07;;
11313;SDS011;5712;48.858;9.206;2023-12-22T10:15:07;6.50;;;2.13;;
11313;SDS011;5712;48.858;9.206;2023-12-22T10:17:35;9.43;;;2.10;;
11313;SDS011;5712;48.858;9.206;2023-12-22T10:20:06;10.40;;;2.20;;
11313;SDS011;5712;48.858;9.206;2023-12-22T10:22:34;7.67;;;1.67;;
11313;SDS011;5712;48.858;9.206;2023-12-22T10:25:01;6.30;;;2.47;;
11313;SDS011;5712;48.858;9.206;2023-12-22T10:27:28;12.13;;;2.30;;
11313;SDS011;5712;48.858;9.206;2023-12-22T10:29:56;6.83;;;1.77;;
11313;SDS011;5712;48.858;9.206;2023-12-22T10:32:28;14.03;;;1.93;;
11313;SDS011;5712;48.858;9.206;2023-12-22T10:34:55;6.53;;;1.83;;
11313;SDS011;5712;48.858;9.206;2023-12-22T10:37:22;7.07;;;1.93;;
11313;SDS011;5712;48.858;9.206;2023-12-22T10:39:53;8.40;;;2.10;;
11313;SDS011;5712;48.858;9.206;2023-12-22T10:42:20;9.47;;;1.93;;
11313;SDS011;5712;48.858;9.206;2023-12-22T10:44:46;7.57;;;1.97;;
11313;SDS011;5712;48.858;9.206;2023-12-22T10:47:14;8.43;;;2.17;;
11313;SDS011;5712;48.858;9.206;2023-12-22T10:49:41;8.93;;;2.17;;
11313;SDS011;5712;48.858;9.206;2023-12-22T10:52:09;10.20;;;1.77;;
11313;SDS011;5712;48.858;9.206;2023-12-22T10:54:41;5.07;;;1.83;;
11313;SDS011;5712;48.858;9.206;2023-12-22T10:57:09;8.70;;;1.73;;
11313;SDS011;5712;48.858;9.206;2023-12-22T10:59:37;6.97;;;2.10;;
11313;SDS011;5712;48.858;9.206;2023-12-22T11:02:10;9.23;;;1.40;;
11313;SDS011;5712;48.858;9.206;2023-12-22T11:04:41;1.70;;;1.23;;
11313;SDS011;5712;48.858;9.206;2023-12-22T11:07:19;3.43;;;1.10;;
11313;SDS011;5712;48.858;9.206;2023-12-22T11:09:50;7.67;;;1.40;;
11313;SDS011;5712;48.858;9.206;2023-12-22T11:12:19;6.17;;;1.40;;
11313;SDS011;5712;48.858;9.206;2023-12-22T11:14:46;3.63;;;1.20;;
11313;SDS011;5712;48.858;9.206;2023-12-22T11:17:16;3.77;;;1.00;;
11313;SDS011;5712;48.858;9.206;2023-12-22T11:19:45;2.97;;;1.40;;
11313;SDS011;5712;48.858;9.206;2023-12-22T11:22:15;3.03;;;1.10;;
11313;SDS011;5712;48.858;9.206;2023-12-22T11:24:43;4.13;;;1.27;;
11313;SDS011;5712;48.858;9.206;2023-12-22T11:27:12;3.63;;;1.17;;
11313;SDS011;5712;48.858;9.206;2023-12-22T11:29:43;1.80;;;0.90;;
11313;SDS011;5712;48.858;9.206;2023-12-22T11:32:13;1.87;;;1.00;;
11313;SDS011;5712;48.858;9.206;2023-12-22T11:34:41;5.20;;;1.37;;
11313;SDS011;5712;48.858;9.206;2023-12-22T11:37:08;3.17;;;1.10;;
11313;SDS011;5712;48.858;9.206;2023-12-22T11:39:37;4.10;;;1.00;;
11313;SDS011;5712;48.858;9.206;2023-12-22T11:42:04;7.60;;;1.10;;
11313;SDS011;5712;48.858;9.206;2023-12-22T11:44:32;2.13;;;0.83;;
11313;SDS011;5712;48.858;9.206;2023-12-22T11:47:07;2.70;;;1.10;;
11313;SDS011;5712;48.858;9.206;2023-12-22T11:49:34;4.73;;;1.07;;
11313;SDS011;5712;48.858;9.206;2023-12-22T11:52:09;1.93;;;0.70;;
11313;SDS011;5712;48.858;9.206;2023-12-22T11:54:48;1.57;;;0.70;;
11313;SDS011;5712;48.858;9.206;2023-12-22T11:57:29;2.67;;;0.90;;
11313;SDS011;5712;48.858;9.206;2023-12-22T11:59:56;3.63;;;1.23;;
11313;SDS011;5712;48.858;9.206;2023-12-22T12:02:25;2.70;;;0.90;;
11313;SDS011;5712;48.858;9.206;2023-12-22T12:04:52;0.70;;;0.50;;
11313;SDS011;5712;48.858;9.206;2023-12-22T12:10:09;0.60;;;0.60;;
11313;SDS011;5712;48.858;9.206;2023-12-22T12:12:36;1.97;;;0.77;;
11313;SDS011;5712;48.858;9.206;2023-12-22T12:15:06;1.93;;;0.80;;
11313;SDS011;5712;48.858;9.206;2023-12-22T12:17:38;1.53;;;0.50;;
11313;SDS011;5712;48.858;9.206;2023-12-22T12:20:07;1.60;;;0.57;;
11313;SDS011;5712;48.858;9.206;2023-12-22T12:22:35;1.37;;;0.50;;
11313;SDS011;5712;48.858;9.206;2023-12-22T12:25:03;1.93;;;0.70;;
11313;SDS011;5712;48.858;9.206;2023-12-22T12:27:32;1.00;;;0.70;;
11313;SDS011;5712;48.858;9.206;2023-12-22T12:30:04;1.17;;;0.80;;
11313;SDS011;5712;48.858;9.206;2023-12-22T12:32:34;1.90;;;0.70;;
11313;SDS011;5712;48.858;9.206;2023-12-22T12:35:02;1.70;;;0.83;;
11313;SDS011;5712;48.858;9.206;2023-12-22T12:37:30;1.20;;;0.80;;
11313;SDS011;5712;48.858;9.206;2023-12-22T12:39:58;0.90;;;0.70;;
11313;SDS011;5712;48.858;9.206;2023-12-22T12:42:25;1.40;;;0.70;;
11313;SDS011;5712;48.858;9.206;2023-12-22T12:44:55;0.60;;;0.60;;
11313;SDS011;5712;48.858;9.206;2023-12-22T12:47:22;0.70;;;0.50;;
11313;SDS011;5712;48.858;9.206;2023-12-22T12:49:55;0.73;;;0.47;;
11313;SDS011;5712;48.858;9.206;2023-12-22T12:52:24;1.00;;;0.60;;
11313;SDS011;5712;48.858;9.206;2023-12-22T12:54:51;1.43;;;1.33;;
11313;SDS011;5712;48.858;9.206;2023-12-22T12:57:18;1.57;;;0.60;;
11313;SDS011;5712;48.858;9.206;2023-12-22T12:59:45;0.70;;;0.50;;
11313;SDS011;5712;48.858;9.206;2023-12-22T13:02:13;2.67;;;1.83;;
11313;SDS011;5712;48.858;9.206;2023-12-22T13:04:39;0.83;;;0.83;;
11313;SDS011;5712;48.858;9.206;2023-12-22T13:07:06;3.13;;;0.77;;
11313;SDS011;5712;48.858;9.206;2023-12-22T13:09:35;0.87;;;0.57;;
11313;SDS011;5712;48.858;9.206;2023-12-22T13:12:02;0.87;;;0.60;;
11313;SDS011;5712;48.858;9.206;2023-12-22T13:14:30;1.73;;;0.57;;
11313;SDS011;5712;48.858;9.206;2023-12-22T13:16:57;0.53;;;0.40;;
11313;SDS011;5712;48.858;9.206;2023-12-22T13:19:24;0.50;;;0.40;;
11313;SDS011;5712;48.858;9.206;2023-12-22T13:21:51;0.40;;;0.40;;
11313;SDS011;5712;48.858;9.206;2023-12-22T13:24:19;0.50;;;0.40;;
11313;SDS011;5712;48.858;9.206;2023-12-22T13:26:57;0.40;;;0.40;;
11313;SDS011;5712;48.858;9.206;2023-12-22T13:29:26;1.47;;;0.50;;
11313;SDS011;5712;48.858;9.206;2023-12-22T13:31:53;0.30;;;0.30;;
11313;SDS011;5712;48.858;9.206;2023-12-22T13:34:20;0.30;;;0.30;;
11313;SDS011;5712;48.858;9.206;2023-12-22T13:36:46;0.70;;;0.40;;
11313;SDS011;5712;48.858;9.206;2023-12-22T13:39:13;0.33;;;0.33;;
11313;SDS011;5712;48.858;9.206;2023-12-22T13:41:40;0.30;;;0.30;;
11313;SDS011;5712;48.858;9.206;2023-12-22T13:44:11;2.47;;;1.60;;
11313;SDS011;5712;48.858;9.206;2023-12-22T13:46:39;2.10;;;1.10;;
11313;SDS011;5712;48.858;9.206;2023-12-22T13:49:07;1.37;;;0.50;;
11313;SDS011;5712;48.858;9.206;2023-12-22T13:51:40;2.17;;;0.47;;
11313;SDS011;5712;48.858;9.206;2023-12-22T13:54:07;0.73;;;0.43;;
11313;SDS011;5712;48.858;9.206;2023-12-22T13:56:34;0.40;;;0.40;;
11313;SDS011;5712;48.858;9.206;2023-12-22T13:59:01;0.47;;;0.40;;
11313;SDS011;5712;48.858;9.206;2023-12-22T14:01:30;0.53;;;0.47;;
11313;SDS011;5712;48.858;9.206;2023-12-22T14:03:56;0.77;;;0.50;;
11313;SDS011;5712;48.858;9.206;2023-12-22T14:06:23;1.00;;;0.40;;
11313;SDS011;5712;48.858;9.206;2023-12-22T14:08:50;0.40;;;0.40;;
11313;SDS011;5712;48.858;9.206;2023-12-22T14:11:16;1.43;;;0.60;;
11313;SDS011;5712;48.858;9.206;2023-12-22T14:13:43;0.70;;;0.60;;
11313;SDS011;5712;48.858;9.206;2023-12-22T14:16:10;0.97;;;0.60;;
11313;SDS011;5712;48.858;9.206;2023-12-22T14:18:38;1.27;;;0.50;;
11313;SDS011;5712;48.858;9.206;2023-12-22T14:21:04;0.57;;;0.50;;
11313;SDS011;5712;48.858;9.206;2023-12-22T14:23:34;1.20;;;0.50;;
11313;SDS011;5712;48.858;9.206;2023-12-22T14:26:01;0.30;;;0.30;;
11313;SDS011;5712;48.858;9.206;2023-12-22T14:28:28;0.40;;;0.30;;
11313;SDS011;5712;48.858;9.206;2023-12-22T14:30:54;1.80;;;0.50;;
11313;SDS011;5712;48.858;9.206;2023-12-22T14:33:21;0.50;;;0.50;;
11313;SDS011;5712;48.858;9.206;2023-12-22T14:35:48;0.67;;;0.40;;
11313;SDS011;5712;48.858;9.206;2023-12-22T14:38:15;0.30;;;0.30;;
11313;SDS011;5712;48.858;9.206;2023-12-22T14:40:42;0.43;;;0.30;;
11313;SDS011;5712;48.858;9.206;2023-12-22T14:43:08;0.50;;;0.40;;
11313;SDS011;5712;48.858;9.206;2023-12-22T14:45:35;0.40;;;0.40;;
11313;SDS011;5712;48.858;9.206;2023-12-22T14:48:01;0.40;;;0.40;;
11313;SDS011;5712;48.858;9.206;2023-12-22T14:50:29;0.50;;;0.50;;
11313;SDS011;5712;48.858;9.206;2023-12-22T14:52:56;0.40;;;0.40;;
11313;SDS011;5712;48.858;9.206;2023-12-22T14:55:23;0.60;;;0.30;;
11313;SDS011;5712;48.858;9.206;2023-12-22T14:57:49;0.50;;;0.50;;
11313;SDS011;5712;48.858;9.206;2023-12-22T15:00:17;0.70;;;0.40;;
11313;SDS011;5712;48.858;9.206;2023-12-22T15:02:44;1.00;;;0.50;;
11313;SDS011;5712;48.858;9.206;2023-12-22T15:05:11;0.83;;;0.67;;